EDHI/XFW METAR and TAF weather

Enter ICAO airport designator
Station Type Date Time Source
EDHI METAR 2022/06/30 14:20 UTC NOAA

EDHI 301420Z VRB03KT CAVOK 29/15 Q1011


Station Type Date Time Source
EDHI Decoded METAR 2022/06/30 14:20 UTC NOAA

Hamburg-Finkenwerder, Germany (EDHI) 53-32N 009-50E 13M
Jun 30, 2022 - 10:20 AM EDT / 2022.06.30 1420 UTC
Wind: Variable at 3 MPH (3 KT):0
Visibility: greater than 7 mile(s):0
Temperature: 84 F (29 C)
Dew Point: 59 F (15 C)
Relative Humidity: 42%
Pressure (altimeter): 29.85 in. Hg (1011 hPa)
ob: EDHI 301420Z VRB03KT CAVOK 29/15 Q1011
cycle: 14

Station Type Date Time Source
EDHI TAF 2010/02/22 14:20 UTC NOAA

METAR EDHI 221420Z 17005KT 9999 BKN030 05/02 Q0989

Example: see airport list